EmailTwitter


Observations de surface / Québec / CYUL (71627)

Régions: Québec | Canada | États-Unis | Europe | France | UK | Ailleurs
Station
Affichage
Infos & localisation pour CYUL (71627) | Aide pour décoder les METARs

Observations prises le 2018-02-24 à 08H00 UTC à MONTREAL INTL A, QB (CYUL)

Etat du ciel: couvert.

Température: 3.0 Celsius

Point de rosée: 2.0 Celsius

Humidité relative: 93%

Facteur vent: -2.

Vents: Ouest-sud-ouest à 22 km/h ou 12 noeuds.

Pression au niveau moyen de la mer: 101.60 kilopascals.

Calage altimétrique: 101.59 kilopascals ou 30.00 pouces de mercure.

Visibilité horizontale: 15.00 milles terrestres ou 24.00 kilomètres.

Hauteur du plafond: 366 mètres ( 1200 pieds ).

Observation METAR:

CYUL 240800Z 25012KT 15SM BKN012 BKN020 OVC045 03/02 A3000 RMK SF5SC2SC1 SLP160=